Time;durP1;ratioP1;P1;durP2;ratioP2;P2;SDS_P1;SDS_P2;PMS_P1;PMS_P2;Temp;Humidity;BMP_temperature;BMP_pressure;BME280_temperature;BME280_humidity;BME280_pressure;Samples;Min_cycle;Max_cycle;Signal;HPM_P1;HPM_P2
2023/06/26 00:02:17;;;;;;;3.40;1.30;;;;;;;17.49;100.00;99094.94;105246;1258;59520;-46
2023/06/26 00:04:44;;;;;;;4.60;1.90;;;;;;;17.45;100.00;99092.33;105314;1257;73050;-49
2023/06/26 00:07:14;;;;;;;4.60;1.20;;;;;;;17.43;100.00;99096.19;105309;1251;66456;-46
2023/06/26 00:09:42;;;;;;;1.70;1.60;;;;;;;17.39;100.00;99095.08;105446;1257;72737;-49
2023/06/26 00:12:09;;;;;;;1.90;1.50;;;;;;;17.34;100.00;99093.86;105290;1251;61683;-46
2023/06/26 00:14:37;;;;;;;9.00;1.60;;;;;;;17.30;100.00;99088.59;105308;1251;60226;-47
2023/06/26 00:17:04;;;;;;;2.50;1.50;;;;;;;17.27;100.00;99089.17;105424;1257;73042;-48
2023/06/26 00:19:31;;;;;;;1.90;1.30;;;;;;;17.24;100.00;99083.27;105361;1258;67534;-48
2023/06/26 00:21:58;;;;;;;1.80;1.40;;;;;;;17.22;100.00;99080.78;105484;1256;71380;-48
2023/06/26 00:24:26;;;;;;;2.50;1.60;;;;;;;17.19;100.00;99078.11;105353;1253;62045;-47
2023/06/26 00:26:53;;;;;;;1.60;1.50;;;;;;;17.16;100.00;99070.58;105382;1251;59992;-46
2023/06/26 00:29:22;;;;;;;4.50;1.90;;;;;;;17.14;100.00;99070.21;105540;1253;72997;-45
2023/06/26 00:31:50;;;;;;;3.00;1.40;;;;;;;17.12;100.00;99068.55;106218;1254;69016;-46
2023/06/26 00:34:19;;;;;;;1.70;1.60;;;;;;;17.11;100.00;99066.81;105329;1251;72804;-46
2023/06/26 00:36:46;;;;;;;2.70;1.90;;;;;;;17.10;100.00;99067.88;109059;1251;61804;-47
2023/06/26 00:39:13;;;;;;;2.40;2.20;;;;;;;17.06;100.00;99070.87;109053;1251;60055;-48
2023/06/26 00:41:41;;;;;;;2.90;2.10;;;;;;;17.06;100.00;99075.30;109144;1251;75238;-47
2023/06/26 00:44:08;;;;;;;2.50;1.90;;;;;;;17.05;100.00;99077.15;109155;1253;66749;-45
2023/06/26 00:46:36;;;;;;;2.20;2.00;;;;;;;17.03;100.00;99079.68;109117;1251;72631;-49
2023/06/26 00:49:03;;;;;;;1.90;1.80;;;;;;;17.00;100.00;99075.55;109135;1251;61666;-46
2023/06/26 00:51:31;;;;;;;3.10;1.60;;;;;;;16.98;100.00;99076.13;108933;1254;60593;-46
2023/06/26 00:53:59;;;;;;;2.20;2.00;;;;;;;16.95;100.00;99071.66;108841;1251;71774;-46
2023/06/26 00:56:27;;;;;;;2.30;2.20;;;;;;;16.92;100.00;99070.11;109296;1252;65771;-47
2023/06/26 00:58:54;;;;;;;3.70;2.30;;;;;;;16.90;100.00;99069.94;108881;1251;73116;-45
2023/06/26 01:01:25;;;;;;;3.00;2.70;;;;;;;16.89;100.00;99069.09;109138;1251;60414;-46
2023/06/26 01:03:53;;;;;;;4.20;2.40;;;;;;;16.88;100.00;99069.77;109124;1251;60159;-46
2023/06/26 01:06:22;;;;;;;3.30;3.00;;;;;;;16.87;100.00;99067.98;109157;1251;72215;-45
2023/06/26 01:08:49;;;;;;;3.80;2.90;;;;;;;16.86;100.00;99064.63;106470;1256;66624;-46
2023/06/26 01:11:17;;;;;;;4.70;3.10;;;;;;;16.85;100.00;99062.58;105155;1255;72653;-50
2023/06/26 01:13:44;;;;;;;4.30;2.40;;;;;;;16.83;100.00;99066.88;105281;1253;60680;-46
2023/06/26 01:16:12;;;;;;;6.20;2.30;;;;;;;16.81;100.00;99064.23;108913;1251;60718;-45
2023/06/26 01:18:42;;;;;;;3.90;2.70;;;;;;;16.79;100.00;99067.26;109163;1251;72995;-46
2023/06/26 01:21:10;;;;;;;5.40;2.30;;;;;;;16.78;100.00;99067.88;108937;1251;66535;-46
2023/06/26 01:23:49;;;;;;;3.10;2.40;;;;;;;16.76;100.00;99065.70;109153;1253;72791;-48
2023/06/26 01:26:19;;;;;;;3.50;2.00;;;;;;;16.74;100.00;99063.14;106424;1254;60449;-47
2023/06/26 01:28:46;;;;;;;2.50;2.40;;;;;;;16.73;100.00;99066.86;108014;1254;59763;-47
2023/06/26 01:31:14;;;;;;;2.40;2.30;;;;;;;16.71;100.00;99067.20;105215;1251;72974;-47
2023/06/26 01:33:41;;;;;;;5.10;2.70;;;;;;;16.70;100.00;99065.86;106166;1251;67402;-46
2023/06/26 01:36:08;;;;;;;3.30;2.50;;;;;;;16.68;100.00;99065.33;105431;1251;73088;-47
2023/06/26 01:38:36;;;;;;;3.40;2.80;;;;;;;16.64;100.00;99062.88;105353;1257;60409;-49
2023/06/26 01:41:04;;;;;;;2.90;2.60;;;;;;;16.61;100.00;99064.22;105306;1258;60071;-46
2023/06/26 01:43:34;;;;;;;3.70;2.30;;;;;;;16.58;100.00;99060.64;105391;1254;73020;-47
2023/06/26 01:46:11;;;;;;;7.10;2.80;;;;;;;16.55;100.00;99058.89;105456;1258;68034;-48
2023/06/26 01:49:16;;;;;;;3.30;2.10;;;;;;;16.53;100.00;99056.87;106139;1251;73250;-46
2023/06/26 01:52:14;;;;;;;2.70;2.50;;;;;;;16.53;100.00;99054.95;105351;1251;62162;-45
2023/06/26 01:55:06;;;;;;;2.80;2.00;;;;;;;16.51;100.00;99052.17;105402;1251;61621;-48
2023/06/26 01:57:34;;;;;;;2.50;2.30;;;;;;;16.50;100.00;99048.79;105819;1251;72650;-46
2023/06/26 02:00:02;;;;;;;3.60;2.40;;;;;;;16.48;100.00;99046.44;105216;1253;68016;-46
2023/06/26 02:02:41;;;;;;;3.80;3.50;;;;;;;16.47;100.00;99044.72;105686;1254;71463;-48
2023/06/26 02:05:08;;;;;;;3.50;3.20;;;;;;;16.47;100.00;99044.89;105500;1254;60557;-47
2023/06/26 02:07:37;;;;;;;2.80;2.60;;;;;;;16.47;100.00;99040.79;105377;1257;60505;-48
2023/06/26 02:10:06;;;;;;;3.70;2.80;;;;;;;16.47;100.00;99038.25;105433;1251;73737;-47
2023/06/26 02:12:35;;;;;;;4.10;3.80;;;;;;;16.46;100.00;99035.95;105431;1258;66586;-48
2023/06/26 02:15:04;;;;;;;4.00;3.60;;;;;;;16.44;100.00;99035.16;105312;1258;70428;-47
2023/06/26 02:17:32;;;;;;;3.40;3.20;;;;;;;16.42;100.00;99033.59;105248;1251;61684;-47
2023/06/26 02:20:00;;;;;;;7.50;3.50;;;;;;;16.40;100.00;99034.47;105362;1251;61080;-48
2023/06/26 02:22:28;;;;;;;3.30;3.00;;;;;;;16.37;100.00;99037.27;105406;1258;73799;-47
2023/06/26 02:24:56;;;;;;;5.30;3.00;;;;;;;16.34;100.00;99036.64;105361;1257;67545;-49
2023/06/26 02:27:23;;;;;;;3.10;2.40;;;;;;;16.33;100.00;99040.15;105347;1258;72676;-48
2023/06/26 02:29:52;;;;;;;3.70;2.40;;;;;;;16.32;100.00;99040.08;105434;1251;61670;-49
2023/06/26 02:32:20;;;;;;;2.40;2.30;;;;;;;16.30;100.00;99037.87;105322;1251;60576;-48
2023/06/26 02:34:51;;;;;;;3.60;1.90;;;;;;;16.25;100.00;99036.28;105819;1257;74480;-48
2023/06/26 02:37:19;;;;;;;3.30;1.80;;;;;;;16.20;100.00;99035.08;105498;1253;66291;-48
2023/06/26 02:39:47;;;;;;;2.10;2.00;;;;;;;16.16;100.00;99032.64;105798;1254;72570;-47
2023/06/26 02:42:16;;;;;;;2.10;1.90;;;;;;;16.16;100.00;99033.08;105501;1257;62184;-47
2023/06/26 02:44:44;;;;;;;2.50;2.30;;;;;;;16.14;100.00;99040.45;105445;1259;60705;-47
2023/06/26 02:47:11;;;;;;;2.00;1.90;;;;;;;16.13;100.00;99039.84;105443;1257;73040;-47
2023/06/26 02:49:41;;;;;;;6.80;2.60;;;;;;;16.13;100.00;99043.61;106019;1251;68051;-49
2023/06/26 02:52:08;;;;;;;4.40;2.90;;;;;;;16.13;100.00;99043.93;105559;1251;71464;-48
2023/06/26 02:54:36;;;;;;;2.70;1.90;;;;;;;16.13;100.00;99041.79;105160;1257;60687;-46
2023/06/26 02:57:04;;;;;;;3.40;2.00;;;;;;;16.12;100.00;99043.17;105355;1257;61871;-46
2023/06/26 02:59:32;;;;;;;2.70;2.50;;;;;;;16.13;100.00;99034.38;105779;1257;72563;-48
2023/06/26 03:01:59;;;;;;;2.30;2.10;;;;;;;16.15;100.00;99033.30;105352;1251;68612;-47
2023/06/26 03:04:39;;;;;;;4.30;2.30;;;;;;;16.17;100.00;99036.41;105443;1256;72647;-46
2023/06/26 03:07:09;;;;;;;3.60;2.50;;;;;;;16.17;100.00;99028.38;105580;1256;63360;-47
2023/06/26 03:09:37;;;;;;;4.20;2.50;;;;;;;16.20;100.00;99026.68;105577;1251;60476;-48
2023/06/26 03:12:05;;;;;;;3.10;2.50;;;;;;;16.23;100.00;99023.41;105287;1251;72559;-48
2023/06/26 03:14:33;;;;;;;2.90;2.70;;;;;;;16.24;100.00;99023.45;105262;1257;66826;-49
2023/06/26 03:17:03;;;;;;;4.00;2.70;;;;;;;16.27;100.00;99025.19;105414;1257;72778;-47
2023/06/26 03:19:31;;;;;;;1.80;1.70;;;;;;;16.32;100.00;99027.39;105617;1257;61653;-48
2023/06/26 03:22:27;;;;;;;3.20;1.90;;;;;;;16.36;100.00;99027.43;105253;1251;61173;-48
2023/06/26 03:24:55;;;;;;;1.50;1.40;;;;;;;16.36;100.00;99027.04;105362;1257;74233;-47
2023/06/26 03:27:23;;;;;;;3.30;1.80;;;;;;;16.38;100.00;99026.70;105279;1258;67872;-48
2023/06/26 03:29:51;;;;;;;7.30;2.00;;;;;;;16.40;100.00;99027.42;105224;1257;73105;-48
2023/06/26 03:32:20;;;;;;;1.60;1.50;;;;;;;16.39;100.00;99028.02;106229;1258;60556;-48
2023/06/26 03:34:48;;;;;;;1.50;1.40;;;;;;;16.39;100.00;99027.85;105256;1251;60465;-48
2023/06/26 03:37:15;;;;;;;1.70;1.60;;;;;;;16.37;100.00;99027.16;109099;1251;73806;-47
2023/06/26 03:39:43;;;;;;;2.70;1.40;;;;;;;16.36;100.00;99029.58;109112;1251;67935;-47
2023/06/26 03:42:10;;;;;;;2.10;1.70;;;;;;;16.35;100.00;99031.46;108987;1251;72126;-47
2023/06/26 03:44:38;;;;;;;3.50;1.70;;;;;;;16.33;100.00;99028.20;109141;1251;61736;-49
2023/06/26 03:47:05;;;;;;;1.60;1.50;;;;;;;16.32;100.00;99026.87;109046;1251;60386;-47
2023/06/26 03:49:33;;;;;;;1.90;1.80;;;;;;;16.32;100.00;99025.76;109072;1251;72641;-47
2023/06/26 03:52:00;;;;;;;1.50;1.40;;;;;;;16.34;100.00;99021.21;109140;1251;67845;-46
2023/06/26 03:54:27;;;;;;;1.30;1.20;;;;;;;16.37;100.00;99021.88;109142;1253;73104;-47
2023/06/26 03:56:57;;;;;;;2.60;2.30;;;;;;;16.41;100.00;99022.66;109166;1252;60663;-47
2023/06/26 03:59:24;;;;;;;4.00;1.90;;;;;;;16.42;100.00;99021.46;108995;1251;59742;-48
2023/06/26 04:01:53;;;;;;;1.70;1.40;;;;;;;16.41;100.00;99022.42;109173;1251;72940;-47
2023/06/26 04:04:20;;;;;;;2.30;1.30;;;;;;;16.41;100.00;99021.54;109163;1251;67611;-45
2023/06/26 04:06:47;;;;;;;1.50;1.40;;;;;;;16.41;100.00;99015.69;109155;1251;71437;-47
2023/06/26 04:09:15;;;;;;;3.80;1.60;;;;;;;16.43;100.00;99014.66;109269;1251;62245;-46
2023/06/26 04:11:42;;;;;;;2.80;1.40;;;;;;;16.46;100.00;99012.59;109137;1251;60782;-46
2023/06/26 04:14:09;;;;;;;2.90;2.20;;;;;;;16.51;100.00;99012.38;109200;1251;73835;-47
2023/06/26 04:16:37;;;;;;;2.20;1.80;;;;;;;16.57;100.00;99008.92;109186;1251;66628;-46
2023/06/26 04:19:04;;;;;;;3.10;1.80;;;;;;;16.63;100.00;99009.72;109192;1253;72433;-47
2023/06/26 04:21:32;;;;;;;2.10;2.00;;;;;;;16.65;100.00;99011.35;109173;1251;62416;-45
2023/06/26 04:23:59;;;;;;;2.40;1.80;;;;;;;16.68;100.00;99011.88;109192;1251;60075;-48
2023/06/26 04:26:27;;;;;;;3.20;2.30;;;;;;;16.71;100.00;99015.56;109210;1251;73809;-46
2023/06/26 04:28:54;;;;;;;3.20;2.60;;;;;;;16.73;100.00;99014.67;109132;1251;68897;-47
2023/06/26 04:31:22;;;;;;;3.80;3.00;;;;;;;16.74;100.00;99013.53;106664;1255;71398;-48
2023/06/26 04:33:50;;;;;;;3.10;2.10;;;;;;;16.73;100.00;99012.89;105426;1251;61688;-47
2023/06/26 04:36:18;;;;;;;3.20;2.80;;;;;;;16.74;100.00;99011.93;105507;1253;60643;-46
2023/06/26 04:38:45;;;;;;;2.50;2.30;;;;;;;16.74;100.00;99017.84;105383;1251;73814;-46
2023/06/26 04:41:12;;;;;;;2.70;2.20;;;;;;;16.74;100.00;99019.14;105406;1257;66624;-46
2023/06/26 04:43:40;;;;;;;3.00;2.20;;;;;;;16.72;100.00;99019.69;105288;1251;72630;-46
2023/06/26 04:46:07;;;;;;;2.30;2.10;;;;;;;16.69;100.00;99017.91;105346;1257;60418;-47
2023/06/26 04:48:34;;;;;;;3.80;2.20;;;;;;;16.67;100.00;99014.09;105480;1253;60594;-45
2023/06/26 04:51:02;;;;;;;2.50;2.00;;;;;;;16.67;100.00;99018.48;105348;1255;74132;-49
2023/06/26 04:53:29;;;;;;;3.80;2.20;;;;;;;16.70;100.00;99018.61;105398;1257;67624;-47
2023/06/26 04:55:57;;;;;;;1.60;1.50;;;;;;;16.72;100.00;99013.84;105360;1251;72646;-46
2023/06/26 04:58:24;;;;;;;3.10;2.40;;;;;;;16.76;100.00;99014.97;105506;1256;60639;-48
2023/06/26 05:00:51;;;;;;;2.60;2.20;;;;;;;16.82;100.00;99013.94;105545;1256;60575;-47
2023/06/26 05:03:18;;;;;;;2.00;1.90;;;;;;;16.90;100.00;99011.25;105441;1257;73885;-48
2023/06/26 05:05:46;;;;;;;4.00;2.00;;;;;;;16.99;100.00;99009.20;105650;1251;66343;-48
2023/06/26 05:08:18;;;;;;;2.40;2.10;;;;;;;17.09;100.00;99007.18;105349;1254;73046;-47
2023/06/26 05:10:46;;;;;;;3.70;3.00;;;;;;;17.21;100.00;99002.70;105306;1257;60547;-47
2023/06/26 05:13:19;;;;;;;2.50;2.10;;;;;;;17.28;100.00;99003.01;105602;1251;60292;-46
2023/06/26 05:15:46;;;;;;;3.00;2.30;;;;;;;17.32;100.00;99001.77;105023;1251;73856;-46
2023/06/26 05:18:14;;;;;;;1.70;1.50;;;;;;;17.32;100.00;98997.19;105323;1257;68369;-48
2023/06/26 05:20:41;;;;;;;2.10;1.90;;;;;;;17.33;100.00;98991.65;105408;1253;71383;-49
2023/06/26 05:23:13;;;;;;;2.00;1.80;;;;;;;17.37;100.00;98994.41;105195;1254;61705;-48
2023/06/26 05:25:41;;;;;;;2.80;1.80;;;;;;;17.43;100.00;98992.78;105078;1251;60852;-48
2023/06/26 05:28:10;;;;;;;1.90;1.80;;;;;;;17.54;100.00;98993.80;105318;1251;73806;-46
2023/06/26 05:30:38;;;;;;;1.90;1.70;;;;;;;17.65;100.00;98995.70;105752;1255;66298;-48
2023/06/26 05:33:06;;;;;;;2.30;2.10;;;;;;;17.76;100.00;98994.96;106024;1254;73725;-49
2023/06/26 05:35:33;;;;;;;2.40;1.40;;;;;;;17.87;100.00;98987.44;105521;1251;62554;-47
2023/06/26 05:38:01;;;;;;;3.00;1.50;;;;;;;17.96;100.00;98986.60;105438;1253;60601;-49
2023/06/26 05:40:28;;;;;;;3.30;1.80;;;;;;;18.04;100.00;98993.28;105405;1259;72569;-48
2023/06/26 05:42:56;;;;;;;4.10;1.90;;;;;;;18.10;100.00;98995.99;105509;1253;66461;-49
2023/06/26 05:45:23;;;;;;;2.40;2.00;;;;;;;18.15;100.00;99001.56;105443;1258;72769;-48
2023/06/26 05:47:50;;;;;;;1.80;1.70;;;;;;;18.17;100.00;98997.91;105460;1253;60659;-49
2023/06/26 05:50:19;;;;;;;3.40;2.50;;;;;;;18.18;100.00;99002.03;105508;1258;60551;-48
2023/06/26 05:52:47;;;;;;;1.80;1.50;;;;;;;18.16;100.00;99003.09;105318;1253;72574;-46
2023/06/26 05:55:15;;;;;;;3.50;2.60;;;;;;;18.19;100.00;99005.05;105803;1255;66796;-46
2023/06/26 05:57:42;;;;;;;2.20;2.10;;;;;;;18.22;100.00;99010.14;105216;1253;72675;-47
2023/06/26 06:00:11;;;;;;;2.80;2.60;;;;;;;18.23;100.00;99007.89;105484;1255;60794;-47
2023/06/26 06:02:42;;;;;;;3.90;2.70;;;;;;;18.21;100.00;99005.70;105332;1253;60543;-49
2023/06/26 06:05:09;;;;;;;4.80;3.50;;;;;;;18.14;100.00;99002.67;104893;1253;72628;-48
2023/06/26 06:07:37;;;;;;;3.00;2.80;;;;;;;18.09;100.00;99001.02;104805;1253;67646;-47
2023/06/26 06:10:05;;;;;;;3.20;3.00;;;;;;;18.08;100.00;98998.02;104915;1255;72658;-48
2023/06/26 06:12:32;;;;;;;3.10;2.60;;;;;;;18.14;100.00;99002.54;104869;1254;60896;-47
2023/06/26 06:15:00;;;;;;;2.10;2.00;;;;;;;18.24;100.00;99001.83;104881;1254;60467;-47
2023/06/26 06:17:27;;;;;;;2.20;2.00;;;;;;;18.27;100.00;99006.48;105005;1253;74165;-47
2023/06/26 06:19:54;;;;;;;2.30;2.10;;;;;;;18.23;100.00;99005.73;106876;1255;68150;-49
2023/06/26 06:22:22;;;;;;;2.20;2.00;;;;;;;18.19;100.00;99008.52;104758;1258;72709;-48
2023/06/26 06:24:50;;;;;;;1.70;1.60;;;;;;;18.15;100.00;99007.19;105003;1254;61634;-48
2023/06/26 06:27:18;;;;;;;2.10;2.00;;;;;;;18.14;100.00;99007.95;105215;1253;60564;-52
2023/06/26 06:29:45;;;;;;;2.70;1.90;;;;;;;18.12;100.00;99008.33;104786;1258;72635;-50
2023/06/26 06:32:13;;;;;;;2.10;1.90;;;;;;;18.10;100.00;99009.96;105236;1253;65771;-51
2023/06/26 06:34:40;;;;;;;2.60;2.00;;;;;;;18.10;100.00;99006.67;105880;1253;72672;-50
2023/06/26 06:37:08;;;;;;;2.20;1.60;;;;;;;18.11;100.00;99012.60;104670;1253;61637;-50
2023/06/26 06:39:35;;;;;;;1.50;1.40;;;;;;;18.11;100.00;99007.02;105031;1257;60929;-49
2023/06/26 06:42:02;;;;;;;1.70;1.60;;;;;;;18.11;100.00;99003.34;104981;1257;76079;-46
2023/06/26 06:44:33;;;;;;;1.60;1.50;;;;;;;18.13;100.00;99004.82;104917;1256;66294;-49
2023/06/26 06:47:00;;;;;;;3.00;1.80;;;;;;;18.16;100.00;99006.90;109073;1253;72587;-49
2023/06/26 06:49:27;;;;;;;1.70;1.40;;;;;;;18.21;100.00;99012.05;109100;1257;59825;-48
2023/06/26 06:51:55;;;;;;;2.80;1.80;;;;;;;18.23;100.00;99010.09;109136;1253;60412;-49
2023/06/26 06:54:25;;;;;;;1.70;1.10;;;;;;;18.20;100.00;99008.38;108952;1253;73951;-50
2023/06/26 06:56:52;;;;;;;0.90;0.90;;;;;;;18.17;100.00;99009.72;107992;1253;68174;-49
2023/06/26 06:59:20;;;;;;;1.00;0.80;;;;;;;18.13;100.00;99007.84;105048;1253;72734;-49
2023/06/26 07:01:47;;;;;;;1.00;0.70;;;;;;;18.18;100.00;99002.17;105063;1255;62664;-47
2023/06/26 07:04:15;;;;;;;0.70;0.70;;;;;;;18.26;100.00;98999.98;109123;1253;60566;-48
2023/06/26 07:06:42;;;;;;;0.70;0.70;;;;;;;18.38;100.00;99000.35;105290;1255;74036;-49
2023/06/26 07:09:09;;;;;;;0.70;0.70;;;;;;;18.49;100.00;99000.00;105216;1257;66272;-47
2023/06/26 07:11:37;;;;;;;0.60;0.60;;;;;;;18.55;100.00;99000.73;104973;1253;72742;-49
2023/06/26 07:14:04;;;;;;;0.60;0.60;;;;;;;18.56;100.00;99003.92;105318;1252;60457;-50
2023/06/26 07:16:32;;;;;;;0.80;0.80;;;;;;;18.54;100.00;99003.35;105454;1253;60566;-48
2023/06/26 07:19:00;;;;;;;0.80;0.80;;;;;;;18.51;100.00;99004.35;108391;1252;76841;-49
2023/06/26 07:21:27;;;;;;;0.70;0.70;;;;;;;18.52;100.00;99003.41;104652;1253;67206;-48
2023/06/26 07:23:54;;;;;;;1.00;0.70;;;;;;;18.48;100.00;99008.62;108946;1254;74887;-49
2023/06/26 07:26:22;;;;;;;1.00;0.90;;;;;;;18.45;100.00;99008.02;106524;1253;60429;-47
2023/06/26 07:29:02;;;;;;;1.50;0.80;;;;;;;18.39;100.00;99015.31;105357;1254;60480;-47
2023/06/26 07:31:29;;;;;;;2.90;0.90;;;;;;;18.32;100.00;99014.30;105370;1253;73200;-49
2023/06/26 07:33:57;;;;;;;0.60;0.60;;;;;;;18.24;100.00;99016.89;105369;1253;66979;-49
2023/06/26 07:36:24;;;;;;;0.90;0.60;;;;;;;18.18;100.00;99016.73;105311;1258;76738;-49
2023/06/26 07:38:51;;;;;;;0.60;0.60;;;;;;;18.13;100.00;99013.69;105444;1251;62415;-48
2023/06/26 07:41:19;;;;;;;0.70;0.70;;;;;;;18.08;100.00;99016.52;105314;1252;60567;-49
2023/06/26 07:43:46;;;;;;;0.70;0.60;;;;;;;18.06;100.00;99015.77;105415;1253;72819;-49
2023/06/26 07:46:13;;;;;;;0.60;0.60;;;;;;;18.06;100.00;99017.94;105861;1257;66324;-49
2023/06/26 07:48:41;;;;;;;1.80;0.50;;;;;;;18.06;100.00;99012.32;105345;1253;70871;-48
2023/06/26 07:51:08;;;;;;;0.60;0.60;;;;;;;18.09;100.00;99009.52;105383;1259;62894;-47
2023/06/26 07:53:37;;;;;;;0.60;0.60;;;;;;;18.13;100.00;99012.42;105487;1255;60569;-48
2023/06/26 07:56:04;;;;;;;0.50;0.50;;;;;;;18.18;100.00;99011.30;105136;1257;74232;-47
2023/06/26 07:58:32;;;;;;;0.60;0.60;;;;;;;18.17;100.00;99011.17;104992;1256;67854;-49
2023/06/26 08:00:59;;;;;;;1.40;0.50;;;;;;;18.12;100.00;99008.30;105546;1256;72663;-48
2023/06/26 08:03:27;;;;;;;3.80;0.60;;;;;;;18.10;100.00;99010.31;105050;1256;60509;-48
2023/06/26 08:06:03;;;;;;;0.60;0.60;;;;;;;18.11;100.00;99013.55;104780;1252;60625;-48
2023/06/26 08:08:33;;;;;;;0.80;0.80;;;;;;;18.12;100.00;99011.45;105168;1260;73952;-50
2023/06/26 08:11:00;;;;;;;0.70;0.70;;;;;;;18.11;100.00;99015.48;105236;1258;66722;-48
2023/06/26 08:13:28;;;;;;;0.70;0.70;;;;;;;18.08;100.00;99015.05;105551;1252;72349;-46
2023/06/26 08:15:55;;;;;;;0.70;0.70;;;;;;;18.07;100.00;99012.29;105389;1252;61014;-48
2023/06/26 08:18:22;;;;;;;0.80;0.70;;;;;;;18.08;100.00;99015.05;105368;1253;60325;-47
2023/06/26 08:20:50;;;;;;;0.70;0.70;;;;;;;18.11;100.00;99013.52;105173;1253;76279;-48
2023/06/26 08:23:17;;;;;;;1.10;0.70;;;;;;;18.16;100.00;99016.70;104787;1256;68029;-47
2023/06/26 08:25:46;;;;;;;0.60;0.50;;;;;;;18.23;100.00;99019.33;104967;1256;74024;-47
2023/06/26 08:28:14;;;;;;;0.40;0.40;;;;;;;18.31;100.00;99019.31;105094;1254;62270;-46
2023/06/26 08:30:41;;;;;;;2.10;0.60;;;;;;;18.37;100.00;99018.24;105205;1251;60482;-48
2023/06/26 08:33:12;;;;;;;0.50;0.50;;;;;;;18.40;100.00;99020.83;105599;1251;72119;-48
2023/06/26 08:35:39;;;;;;;1.90;0.50;;;;;;;18.41;100.00;99018.25;105274;1252;69039;-50
2023/06/26 08:38:09;;;;;;;0.40;0.40;;;;;;;18.38;100.00;99025.79;104885;1251;72649;-47
2023/06/26 08:40:38;;;;;;;2.10;0.40;;;;;;;18.33;100.00;99020.56;106282;1253;60576;-48
2023/06/26 08:43:06;;;;;;;0.30;0.30;;;;;;;18.33;100.00;99022.07;105384;1258;63354;-49
2023/06/26 08:45:33;;;;;;;0.40;0.40;;;;;;;18.34;100.00;99025.55;105225;1251;73832;-47
2023/06/26 08:48:01;;;;;;;0.50;0.30;;;;;;;18.35;100.00;99020.02;105045;1253;68680;-48
2023/06/26 08:50:30;;;;;;;0.30;0.30;;;;;;;18.39;100.00;99024.35;105390;1258;72118;-47
2023/06/26 08:53:14;;;;;;;1.40;0.30;;;;;;;18.44;100.00;99024.80;106486;1253;61020;-47
2023/06/26 08:55:41;;;;;;;0.80;0.30;;;;;;;18.47;100.00;99025.63;105271;1251;60339;-49
2023/06/26 08:58:09;;;;;;;0.30;0.30;;;;;;;18.45;100.00;99033.46;105262;1256;73392;-48
2023/06/26 09:00:37;;;;;;;0.30;0.30;;;;;;;18.42;100.00;99034.09;105252;1252;68542;-49
2023/06/26 09:03:04;;;;;;;0.40;0.30;;;;;;;18.40;100.00;99037.55;105296;1259;73036;-47
2023/06/26 09:05:32;;;;;;;1.60;0.20;;;;;;;18.40;100.00;99039.52;105333;1259;60567;-48
2023/06/26 09:07:59;;;;;;;4.40;0.40;;;;;;;18.41;100.00;99047.83;105161;1253;60623;-48
2023/06/26 09:10:27;;;;;;;0.20;0.20;;;;;;;18.38;100.00;99046.70;105314;1258;74231;-49
2023/06/26 09:12:56;;;;;;;0.80;0.20;;;;;;;18.33;100.00;99047.46;105275;1257;68489;-49
2023/06/26 09:15:23;;;;;;;0.80;0.40;;;;;;;18.33;100.00;99052.96;108068;1256;72692;-49
2023/06/26 09:17:51;;;;;;;0.80;0.20;;;;;;;18.30;100.00;99047.35;107327;1258;60477;-49
2023/06/26 09:20:19;;;;;;;0.20;0.20;;;;;;;18.28;100.00;99046.45;105200;1251;60544;-49
2023/06/26 09:22:47;;;;;;;1.00;0.20;;;;;;;18.32;100.00;99047.88;105281;1253;73354;-50
2023/06/26 09:25:14;;;;;;;0.40;0.20;;;;;;;18.44;100.00;99054.99;105215;1258;68468;-49
2023/06/26 09:27:42;;;;;;;0.20;0.20;;;;;;;18.56;100.00;99053.55;105338;1253;74711;-48
2023/06/26 09:30:10;;;;;;;0.20;0.20;;;;;;;18.65;100.00;99049.27;105192;1253;60435;-48
2023/06/26 09:32:37;;;;;;;0.20;0.20;;;;;;;18.77;100.00;99052.16;105246;1253;60539;-47
2023/06/26 09:35:05;;;;;;;0.10;0.10;;;;;;;18.90;100.00;99055.69;105410;1258;75272;-50
2023/06/26 09:37:34;;;;;;;0.10;0.10;;;;;;;18.94;100.00;99054.42;104811;1258;74298;-49
2023/06/26 09:40:03;;;;;;;0.20;0.20;;;;;;;18.88;100.00;99055.66;105922;1253;72529;-50
2023/06/26 09:42:31;;;;;;;0.70;0.20;;;;;;;18.80;100.00;99058.03;109080;1253;62079;-49
2023/06/26 09:44:59;;;;;;;0.20;0.20;;;;;;;18.72;100.00;99057.83;108941;1251;58943;-49
2023/06/26 09:47:26;;;;;;;1.20;0.10;;;;;;;18.66;100.00;99051.34;108963;1252;72031;-50
2023/06/26 09:49:54;;;;;;;0.10;0.10;;;;;;;18.63;100.00;99058.93;109035;1251;66306;-49
2023/06/26 09:52:26;;;;;;;0.10;0.10;;;;;;;18.59;100.00;99053.11;108936;1252;72778;-49
2023/06/26 09:57:55;;;;;;;0.20;0.20;;;;;;;18.59;100.00;99046.58;102578;1285;600779;-47
2023/06/26 10:00:23;;;;;;;0.10;0.10;;;;;;;18.57;100.00;99063.84;103781;1269;60739;-47
2023/06/26 10:02:50;;;;;;;0.40;0.20;;;;;;;18.54;100.00;99056.63;103568;1267;59456;-47
2023/06/26 10:05:18;;;;;;;0.10;0.10;;;;;;;18.60;100.00;99053.70;108123;1265;72247;-48
2023/06/26 10:07:45;;;;;;;0.20;0.10;;;;;;;18.74;100.00;99057.02;108152;1266;68144;-48
2023/06/26 10:10:13;;;;;;;0.10;0.10;;;;;;;18.89;100.00;99056.80;107777;1268;71775;-49
2023/06/26 10:12:40;;;;;;;0.20;0.20;;;;;;;19.07;100.00;99058.96;107966;1265;357735;-48
2023/06/26 10:15:10;;;;;;;0.20;0.10;;;;;;;19.19;100.00;99060.30;105941;1265;60139;-47
2023/06/26 10:17:38;;;;;;;1.10;0.10;;;;;;;19.32;100.00;99067.12;104511;1266;73218;-47
2023/06/26 10:20:06;;;;;;;0.30;0.20;;;;;;;19.39;100.00;99070.58;104624;1268;66374;-49
2023/06/26 10:22:46;;;;;;;0.60;0.40;;;;;;;19.39;100.00;99064.95;104433;1266;75011;-49
2023/06/26 10:25:18;;;;;;;0.60;0.20;;;;;;;19.36;100.00;99071.83;108736;1258;61717;-50
2023/06/26 10:27:52;;;;;;;0.30;0.20;;;;;;;19.30;100.00;99070.20;108801;1256;59637;-48
2023/06/26 10:30:23;;;;;;;0.40;0.20;;;;;;;19.24;100.00;99082.05;105421;1261;71890;-48
2023/06/26 10:32:51;;;;;;;1.00;0.20;;;;;;;19.20;100.00;99081.66;105245;1257;66437;-48
2023/06/26 10:35:18;;;;;;;0.20;0.20;;;;;;;19.19;100.00;99081.04;105083;1257;71893;-46
2023/06/26 10:37:49;;;;;;;0.20;0.20;;;;;;;19.26;100.00;99084.41;105004;1257;60869;-48
2023/06/26 10:40:27;;;;;;;0.80;0.20;;;;;;;19.33;100.00;99085.73;105048;1262;59647;-47
2023/06/26 10:43:10;;;;;;;0.10;0.10;;;;;;;19.38;100.00;99092.60;105033;1256;73020;-48
2023/06/26 10:45:45;;;;;;;0.50;0.30;;;;;;;19.42;100.00;99093.96;105349;1256;66334;-49
2023/06/26 10:48:14;;;;;;;0.30;0.20;;;;;;;19.46;100.00;99088.20;105614;1261;72676;-48
2023/06/26 10:50:41;;;;;;;0.30;0.30;;;;;;;19.53;100.00;99090.10;105155;1256;61805;-45
2023/06/26 10:53:20;;;;;;;0.30;0.30;;;;;;;19.60;100.00;99081.52;105180;1256;60026;-49
2023/06/26 10:55:59;;;;;;;0.20;0.20;;;;;;;19.66;100.00;99088.77;104878;1256;73153;-49
2023/06/26 10:58:49;;;;;;;0.30;0.20;;;;;;;19.65;100.00;99092.86;105011;1262;67626;-49
2023/06/26 11:01:21;;;;;;;1.00;0.30;;;;;;;19.58;100.00;99094.46;105027;1258;72703;-46
2023/06/26 11:04:10;;;;;;;1.80;0.20;;;;;;;19.51;100.00;99102.97;104890;1264;59747;-47
2023/06/26 11:06:41;;;;;;;0.40;0.20;;;;;;;19.43;100.00;99102.95;104602;1256;60654;-49
2023/06/26 11:09:10;;;;;;;0.40;0.20;;;;;;;19.37;100.00;99099.44;104503;1262;71843;-47
2023/06/26 11:11:51;;;;;;;3.30;2.30;;;;;;;19.33;100.00;99096.32;105028;1262;66833;-48
2023/06/26 11:14:19;;;;;;;0.20;0.20;;;;;;;19.39;100.00;99106.15;104932;1262;72586;-47
2023/06/26 11:16:47;;;;;;;0.20;0.20;;;;;;;19.44;100.00;99103.41;106491;1256;60632;-48
2023/06/26 11:19:15;;;;;;;0.20;0.20;;;;;;;19.47;100.00;99112.27;104993;1257;60591;-49
2023/06/26 11:21:42;;;;;;;0.20;0.20;;;;;;;19.41;100.00;99107.77;105533;1257;73625;-48
2023/06/26 11:24:11;;;;;;;0.40;0.20;;;;;;;19.29;100.00;99107.98;105041;1262;66778;-48
2023/06/26 11:26:43;;;;;;;0.40;0.20;;;;;;;19.19;100.00;99115.06;105059;1260;73597;-49
2023/06/26 11:29:10;;;;;;;0.50;0.20;;;;;;;19.15;100.00;99112.55;105121;1261;64253;-48